sensor_id;sensor_type;location;lat;lon;timestamp;temperature;humidity
78467;SHT31;67759;51.972;5.650;2023-09-19T00:01:14;21.0;56.2
78467;SHT31;67759;51.972;5.650;2023-09-19T00:03:47;21.0;56.3
78467;SHT31;67759;51.972;5.650;2023-09-19T00:06:17;21.0;56.2
78467;SHT31;67759;51.972;5.650;2023-09-19T00:08:48;21.0;56.5
78467;SHT31;67759;51.972;5.650;2023-09-19T00:11:17;21.0;56.6
78467;SHT31;67759;51.972;5.650;2023-09-19T00:13:49;21.0;56.7
78467;SHT31;67759;51.972;5.650;2023-09-19T00:16:19;21.0;56.6
78467;SHT31;67759;51.972;5.650;2023-09-19T00:18:51;21.0;56.4
78467;SHT31;67759;51.972;5.650;2023-09-19T00:21:21;21.1;56.8
78467;SHT31;67759;51.972;5.650;2023-09-19T00:23:51;21.1;56.5
78467;SHT31;67759;51.972;5.650;2023-09-19T00:26:22;21.1;56.3
78467;SHT31;67759;51.972;5.650;2023-09-19T00:28:54;21.1;56.3
78467;SHT31;67759;51.972;5.650;2023-09-19T00:31:26;21.2;56.4
78467;SHT31;67759;51.972;5.650;2023-09-19T00:33:57;21.2;56.4
78467;SHT31;67759;51.972;5.650;2023-09-19T00:36:31;21.2;56.3
78467;SHT31;67759;51.972;5.650;2023-09-19T00:39:03;21.2;56.2
78467;SHT31;67759;51.972;5.650;2023-09-19T00:41:33;21.2;56.6
78467;SHT31;67759;51.972;5.650;2023-09-19T00:44:03;21.2;56.7
78467;SHT31;67759;51.972;5.650;2023-09-19T00:46:35;21.2;56.7
78467;SHT31;67759;51.972;5.650;2023-09-19T00:49:08;21.2;57.0
78467;SHT31;67759;51.972;5.650;2023-09-19T00:51:38;21.2;57.3
78467;SHT31;67759;51.972;5.650;2023-09-19T00:54:14;21.2;57.6
78467;SHT31;67759;51.972;5.650;2023-09-19T00:56:47;21.3;57.0
78467;SHT31;67759;51.972;5.650;2023-09-19T00:59:18;21.4;56.8
78467;SHT31;67759;51.972;5.650;2023-09-19T01:01:50;21.4;56.8
78467;SHT31;67759;51.972;5.650;2023-09-19T01:04:22;21.4;56.7
78467;SHT31;67759;51.972;5.650;2023-09-19T01:06:54;21.4;56.8
78467;SHT31;67759;51.972;5.650;2023-09-19T01:09:25;21.3;56.8
78467;SHT31;67759;51.972;5.650;2023-09-19T01:12:00;21.2;56.9
78467;SHT31;67759;51.972;5.650;2023-09-19T01:14:39;21.1;57.2
78467;SHT31;67759;51.972;5.650;2023-09-19T01:17:19;21.1;57.3
78467;SHT31;67759;51.972;5.650;2023-09-19T01:20:36;21.1;57.4
78467;SHT31;67759;51.972;5.650;2023-09-19T01:23:12;21.0;57.2
78467;SHT31;67759;51.972;5.650;2023-09-19T01:26:07;21.0;56.9
78467;SHT31;67759;51.972;5.650;2023-09-19T01:29:00;21.0;56.7
78467;SHT31;67759;51.972;5.650;2023-09-19T01:31:33;21.0;56.6
78467;SHT31;67759;51.972;5.650;2023-09-19T01:34:06;21.0;56.1
78467;SHT31;67759;51.972;5.650;2023-09-19T01:36:37;21.0;55.8
78467;SHT31;67759;51.972;5.650;2023-09-19T01:39:10;21.0;55.6
78467;SHT31;67759;51.972;5.650;2023-09-19T01:41:55;21.0;55.3
78467;SHT31;67759;51.972;5.650;2023-09-19T01:44:29;21.0;55.0
78467;SHT31;67759;51.972;5.650;2023-09-19T01:47:07;20.9;54.9
78467;SHT31;67759;51.972;5.650;2023-09-19T01:49:48;20.9;54.5
78467;SHT31;67759;51.972;5.650;2023-09-19T01:52:21;20.9;54.5
78467;SHT31;67759;51.972;5.650;2023-09-19T01:55:01;20.9;54.4
78467;SHT31;67759;51.972;5.650;2023-09-19T01:57:39;20.9;54.1
78467;SHT31;67759;51.972;5.650;2023-09-19T02:00:15;20.8;54.5
78467;SHT31;67759;51.972;5.650;2023-09-19T02:02:48;20.8;54.5
78467;SHT31;67759;51.972;5.650;2023-09-19T02:05:24;20.7;54.7
78467;SHT31;67759;51.972;5.650;2023-09-19T02:07:55;20.7;54.5
78467;SHT31;67759;51.972;5.650;2023-09-19T02:10:26;20.7;54.2
78467;SHT31;67759;51.972;5.650;2023-09-19T02:12:56;20.7;54.2
78467;SHT31;67759;51.972;5.650;2023-09-19T02:15:26;20.6;53.8
78467;SHT31;67759;51.972;5.650;2023-09-19T02:17:56;20.6;53.7
78467;SHT31;67759;51.972;5.650;2023-09-19T02:20:26;20.5;53.8
78467;SHT31;67759;51.972;5.650;2023-09-19T02:22:56;20.5;54.0
78467;SHT31;67759;51.972;5.650;2023-09-19T02:25:26;20.4;53.8
78467;SHT31;67759;51.972;5.650;2023-09-19T02:27:55;20.3;53.7
78467;SHT31;67759;51.972;5.650;2023-09-19T02:30:25;20.3;54.1
78467;SHT31;67759;51.972;5.650;2023-09-19T02:32:55;20.3;53.7
78467;SHT31;67759;51.972;5.650;2023-09-19T02:35:27;20.3;53.3
78467;SHT31;67759;51.972;5.650;2023-09-19T02:38:00;20.3;53.0
78467;SHT31;67759;51.972;5.650;2023-09-19T02:40:34;20.2;53.4
78467;SHT31;67759;51.972;5.650;2023-09-19T02:43:07;20.1;52.9
78467;SHT31;67759;51.972;5.650;2023-09-19T02:45:37;20.1;52.9
78467;SHT31;67759;51.972;5.650;2023-09-19T02:48:07;20.0;52.9
78467;SHT31;67759;51.972;5.650;2023-09-19T02:50:37;20.0;53.4
78467;SHT31;67759;51.972;5.650;2023-09-19T02:53:08;19.9;53.0
78467;SHT31;67759;51.972;5.650;2023-09-19T02:55:40;19.9;53.0
78467;SHT31;67759;51.972;5.650;2023-09-19T02:58:10;19.8;53.0
78467;SHT31;67759;51.972;5.650;2023-09-19T03:00:42;19.7;53.0
78467;SHT31;67759;51.972;5.650;2023-09-19T03:03:15;19.7;53.0
78467;SHT31;67759;51.972;5.650;2023-09-19T03:05:45;19.6;53.2
78467;SHT31;67759;51.972;5.650;2023-09-19T03:08:15;19.6;53.2
78467;SHT31;67759;51.972;5.650;2023-09-19T03:10:46;19.5;53.4
78467;SHT31;67759;51.972;5.650;2023-09-19T03:13:16;19.5;53.4
78467;SHT31;67759;51.972;5.650;2023-09-19T03:15:47;19.5;53.5
78467;SHT31;67759;51.972;5.650;2023-09-19T03:18:17;19.4;53.2
78467;SHT31;67759;51.972;5.650;2023-09-19T03:20:54;19.4;52.9
78467;SHT31;67759;51.972;5.650;2023-09-19T03:23:24;19.4;53.1
78467;SHT31;67759;51.972;5.650;2023-09-19T03:25:54;19.4;52.8
78467;SHT31;67759;51.972;5.650;2023-09-19T03:28:26;19.4;52.6
78467;SHT31;67759;51.972;5.650;2023-09-19T03:31:04;19.3;52.2
78467;SHT31;67759;51.972;5.650;2023-09-19T03:33:34;19.3;52.5
78467;SHT31;67759;51.972;5.650;2023-09-19T03:36:05;19.3;52.6
78467;SHT31;67759;51.972;5.650;2023-09-19T03:38:34;19.2;52.2
78467;SHT31;67759;51.972;5.650;2023-09-19T03:41:05;19.2;52.3
78467;SHT31;67759;51.972;5.650;2023-09-19T03:43:35;19.2;52.2
78467;SHT31;67759;51.972;5.650;2023-09-19T03:46:05;19.2;52.1
78467;SHT31;67759;51.972;5.650;2023-09-19T03:48:35;19.2;52.3
78467;SHT31;67759;51.972;5.650;2023-09-19T03:51:04;19.1;52.2
78467;SHT31;67759;51.972;5.650;2023-09-19T03:53:34;19.1;51.8
78467;SHT31;67759;51.972;5.650;2023-09-19T03:56:03;19.1;51.9
78467;SHT31;67759;51.972;5.650;2023-09-19T03:58:33;19.1;51.8
78467;SHT31;67759;51.972;5.650;2023-09-19T04:01:06;19.1;51.8
78467;SHT31;67759;51.972;5.650;2023-09-19T04:03:36;19.1;52.0
78467;SHT31;67759;51.972;5.650;2023-09-19T04:06:16;19.1;52.0
78467;SHT31;67759;51.972;5.650;2023-09-19T04:08:46;19.1;51.7
78467;SHT31;67759;51.972;5.650;2023-09-19T04:11:16;19.2;51.8
78467;SHT31;67759;51.972;5.650;2023-09-19T04:13:48;19.2;51.8
78467;SHT31;67759;51.972;5.650;2023-09-19T04:16:17;19.2;51.5
78467;SHT31;67759;51.972;5.650;2023-09-19T04:18:49;19.2;51.6
78467;SHT31;67759;51.972;5.650;2023-09-19T04:21:18;19.2;51.6
78467;SHT31;67759;51.972;5.650;2023-09-19T04:23:50;19.2;51.5
78467;SHT31;67759;51.972;5.650;2023-09-19T04:26:19;19.2;51.3
78467;SHT31;67759;51.972;5.650;2023-09-19T04:28:49;19.1;51.4
78467;SHT31;67759;51.972;5.650;2023-09-19T04:31:19;19.1;51.7
78467;SHT31;67759;51.972;5.650;2023-09-19T04:33:49;19.1;51.7
78467;SHT31;67759;51.972;5.650;2023-09-19T04:36:19;19.1;51.9
78467;SHT31;67759;51.972;5.650;2023-09-19T04:38:50;19.0;51.9
78467;SHT31;67759;51.972;5.650;2023-09-19T04:41:22;19.1;52.6
78467;SHT31;67759;51.972;5.650;2023-09-19T04:43:52;19.2;52.3
78467;SHT31;67759;51.972;5.650;2023-09-19T04:46:25;19.4;51.7
78467;SHT31;67759;51.972;5.650;2023-09-19T04:48:54;19.6;50.8
78467;SHT31;67759;51.972;5.650;2023-09-19T04:51:24;19.6;50.5
78467;SHT31;67759;51.972;5.650;2023-09-19T04:53:58;19.6;50.5
78467;SHT31;67759;51.972;5.650;2023-09-19T04:56:27;19.6;50.5
78467;SHT31;67759;51.972;5.650;2023-09-19T04:58:59;19.6;50.4
78467;SHT31;67759;51.972;5.650;2023-09-19T05:01:29;19.6;50.6
78467;SHT31;67759;51.972;5.650;2023-09-19T05:03:59;19.5;50.9
78467;SHT31;67759;51.972;5.650;2023-09-19T05:06:28;19.5;51.0
78467;SHT31;67759;51.972;5.650;2023-09-19T05:08:58;19.5;51.2
78467;SHT31;67759;51.972;5.650;2023-09-19T05:11:27;19.4;51.4
78467;SHT31;67759;51.972;5.650;2023-09-19T05:13:57;19.4;51.6
78467;SHT31;67759;51.972;5.650;2023-09-19T05:16:31;19.4;51.7
78467;SHT31;67759;51.972;5.650;2023-09-19T05:19:01;19.4;51.9
78467;SHT31;67759;51.972;5.650;2023-09-19T05:21:32;19.3;51.9
78467;SHT31;67759;51.972;5.650;2023-09-19T05:24:02;19.3;52.3
78467;SHT31;67759;51.972;5.650;2023-09-19T05:26:33;19.3;52.1
78467;SHT31;67759;51.972;5.650;2023-09-19T05:29:03;19.3;52.2
78467;SHT31;67759;51.972;5.650;2023-09-19T05:31:35;19.3;52.3
78467;SHT31;67759;51.972;5.650;2023-09-19T05:34:08;19.3;52.6
78467;SHT31;67759;51.972;5.650;2023-09-19T05:36:38;19.3;52.8
78467;SHT31;67759;51.972;5.650;2023-09-19T05:39:09;19.3;52.8
78467;SHT31;67759;51.972;5.650;2023-09-19T05:41:41;19.3;53.2
78467;SHT31;67759;51.972;5.650;2023-09-19T05:44:12;19.5;52.7
78467;SHT31;67759;51.972;5.650;2023-09-19T05:46:42;19.5;52.7
78467;SHT31;67759;51.972;5.650;2023-09-19T05:49:13;19.7;52.5
78467;SHT31;67759;51.972;5.650;2023-09-19T05:51:43;19.9;52.0
78467;SHT31;67759;51.972;5.650;2023-09-19T05:54:14;20.0;51.8
78467;SHT31;67759;51.972;5.650;2023-09-19T05:56:47;20.1;51.3
78467;SHT31;67759;51.972;5.650;2023-09-19T05:59:20;20.2;50.8
78467;SHT31;67759;51.972;5.650;2023-09-19T06:01:50;20.3;50.7
78467;SHT31;67759;51.972;5.650;2023-09-19T06:04:24;20.2;50.9
78467;SHT31;67759;51.972;5.650;2023-09-19T06:06:55;20.2;51.0
78467;SHT31;67759;51.972;5.650;2023-09-19T06:09:26;20.2;51.1
78467;SHT31;67759;51.972;5.650;2023-09-19T06:11:56;20.2;51.3
78467;SHT31;67759;51.972;5.650;2023-09-19T06:14:27;20.1;51.6
78467;SHT31;67759;51.972;5.650;2023-09-19T06:16:58;20.1;51.8
78467;SHT31;67759;51.972;5.650;2023-09-19T06:19:28;20.1;52.1
78467;SHT31;67759;51.972;5.650;2023-09-19T06:21:57;20.0;52.2
78467;SHT31;67759;51.972;5.650;2023-09-19T06:24:29;20.0;52.5
78467;SHT31;67759;51.972;5.650;2023-09-19T06:27:01;20.0;52.7
78467;SHT31;67759;51.972;5.650;2023-09-19T06:29:31;19.9;52.9
78467;SHT31;67759;51.972;5.650;2023-09-19T06:32:01;19.9;53.2
78467;SHT31;67759;51.972;5.650;2023-09-19T06:34:31;19.9;53.3
78467;SHT31;67759;51.972;5.650;2023-09-19T06:37:00;19.9;53.7
78467;SHT31;67759;51.972;5.650;2023-09-19T06:39:32;19.9;53.7
78467;SHT31;67759;51.972;5.650;2023-09-19T06:42:01;19.9;54.0
78467;SHT31;67759;51.972;5.650;2023-09-19T06:44:33;19.9;54.2
78467;SHT31;67759;51.972;5.650;2023-09-19T06:47:02;19.9;54.4
78467;SHT31;67759;51.972;5.650;2023-09-19T06:49:34;19.9;54.2
78467;SHT31;67759;51.972;5.650;2023-09-19T06:52:05;19.9;54.3
78467;SHT31;67759;51.972;5.650;2023-09-19T06:54:35;19.9;54.5
78467;SHT31;67759;51.972;5.650;2023-09-19T06:57:05;19.9;54.3
78467;SHT31;67759;51.972;5.650;2023-09-19T06:59:37;19.9;54.5
78467;SHT31;67759;51.972;5.650;2023-09-19T07:02:07;19.9;54.6
78467;SHT31;67759;51.972;5.650;2023-09-19T07:04:38;19.9;54.7
78467;SHT31;67759;51.972;5.650;2023-09-19T07:07:08;19.9;54.7
78467;SHT31;67759;51.972;5.650;2023-09-19T07:09:40;20.0;54.6
78467;SHT31;67759;51.972;5.650;2023-09-19T07:12:09;20.0;54.8
78467;SHT31;67759;51.972;5.650;2023-09-19T07:14:39;20.0;55.2
78467;SHT31;67759;51.972;5.650;2023-09-19T07:17:09;20.1;54.9
78467;SHT31;67759;51.972;5.650;2023-09-19T07:19:39;20.3;54.2
78467;SHT31;67759;51.972;5.650;2023-09-19T07:22:09;20.4;53.8
78467;SHT31;67759;51.972;5.650;2023-09-19T07:24:38;20.5;53.7
78467;SHT31;67759;51.972;5.650;2023-09-19T07:27:08;20.6;53.4
78467;SHT31;67759;51.972;5.650;2023-09-19T07:29:38;20.6;53.4
78467;SHT31;67759;51.972;5.650;2023-09-19T07:32:09;20.7;53.1
78467;SHT31;67759;51.972;5.650;2023-09-19T07:34:41;20.7;53.5
78467;SHT31;67759;51.972;5.650;2023-09-19T07:37:13;20.7;53.3
78467;SHT31;67759;51.972;5.650;2023-09-19T07:39:43;20.8;53.3
78467;SHT31;67759;51.972;5.650;2023-09-19T07:42:12;20.8;52.8
78467;SHT31;67759;51.972;5.650;2023-09-19T07:44:48;20.9;53.2
78467;SHT31;67759;51.972;5.650;2023-09-19T07:47:18;20.9;52.8
78467;SHT31;67759;51.972;5.650;2023-09-19T07:49:48;21.0;52.7
78467;SHT31;67759;51.972;5.650;2023-09-19T07:52:18;21.0;52.6
78467;SHT31;67759;51.972;5.650;2023-09-19T07:54:50;21.1;52.5
78467;SHT31;67759;51.972;5.650;2023-09-19T07:57:20;21.1;52.4
78467;SHT31;67759;51.972;5.650;2023-09-19T07:59:50;21.1;52.5
78467;SHT31;67759;51.972;5.650;2023-09-19T08:02:20;21.2;52.3
78467;SHT31;67759;51.972;5.650;2023-09-19T08:04:50;21.2;52.6
78467;SHT31;67759;51.972;5.650;2023-09-19T08:07:19;21.4;52.3
78467;SHT31;67759;51.972;5.650;2023-09-19T08:09:50;21.4;52.1
78467;SHT31;67759;51.972;5.650;2023-09-19T08:12:20;21.5;51.5
78467;SHT31;67759;51.972;5.650;2023-09-19T08:14:52;21.6;51.9
78467;SHT31;67759;51.972;5.650;2023-09-19T08:17:22;21.7;51.9
78467;SHT31;67759;51.972;5.650;2023-09-19T08:19:52;21.8;51.3
78467;SHT31;67759;51.972;5.650;2023-09-19T08:22:22;21.9;51.5
78467;SHT31;67759;51.972;5.650;2023-09-19T08:24:51;22.0;51.5
78467;SHT31;67759;51.972;5.650;2023-09-19T08:27:21;22.0;50.9
78467;SHT31;67759;51.972;5.650;2023-09-19T08:29:54;22.1;51.1
78467;SHT31;67759;51.972;5.650;2023-09-19T08:32:24;22.1;51.1
78467;SHT31;67759;51.972;5.650;2023-09-19T08:34:54;22.1;51.2
78467;SHT31;67759;51.972;5.650;2023-09-19T08:37:24;22.2;51.2
78467;SHT31;67759;51.972;5.650;2023-09-19T08:39:54;22.2;51.5
78467;SHT31;67759;51.972;5.650;2023-09-19T08:42:23;22.3;51.1
78467;SHT31;67759;51.972;5.650;2023-09-19T08:44:58;22.3;50.7
78467;SHT31;67759;51.972;5.650;2023-09-19T08:47:34;22.3;50.6
78467;SHT31;67759;51.972;5.650;2023-09-19T08:50:13;22.4;50.4
78467;SHT31;67759;51.972;5.650;2023-09-19T08:52:53;22.4;50.7
78467;SHT31;67759;51.972;5.650;2023-09-19T08:55:28;22.7;50.6
78467;SHT31;67759;51.972;5.650;2023-09-19T08:58:03;22.8;50.0
78467;SHT31;67759;51.972;5.650;2023-09-19T09:00:36;22.9;49.5
78467;SHT31;67759;51.972;5.650;2023-09-19T09:03:12;23.0;49.4
78467;SHT31;67759;51.972;5.650;2023-09-19T09:05:44;23.1;49.2
78467;SHT31;67759;51.972;5.650;2023-09-19T09:08:19;23.2;48.1
78467;SHT31;67759;51.972;5.650;2023-09-19T09:10:51;23.4;47.7
78467;SHT31;67759;51.972;5.650;2023-09-19T09:13:21;23.5;47.4
78467;SHT31;67759;51.972;5.650;2023-09-19T09:15:54;23.5;47.8
78467;SHT31;67759;51.972;5.650;2023-09-19T09:18:26;23.6;46.7
78467;SHT31;67759;51.972;5.650;2023-09-19T09:20:58;23.7;47.0
78467;SHT31;67759;51.972;5.650;2023-09-19T09:23:31;23.9;46.4
78467;SHT31;67759;51.972;5.650;2023-09-19T09:26:08;24.2;44.4
78467;SHT31;67759;51.972;5.650;2023-09-19T09:28:46;24.4;44.5
78467;SHT31;67759;51.972;5.650;2023-09-19T09:31:26;24.6;44.7
78467;SHT31;67759;51.972;5.650;2023-09-19T09:33:57;24.8;43.8
78467;SHT31;67759;51.972;5.650;2023-09-19T09:36:39;24.9;43.2
78467;SHT31;67759;51.972;5.650;2023-09-19T09:39:15;25.1;42.5
78467;SHT31;67759;51.972;5.650;2023-09-19T09:41:54;25.1;42.5
78467;SHT31;67759;51.972;5.650;2023-09-19T09:44:26;25.1;42.7
78467;SHT31;67759;51.972;5.650;2023-09-19T09:47:01;25.2;42.7
78467;SHT31;67759;51.972;5.650;2023-09-19T09:49:54;25.3;42.3
78467;SHT31;67759;51.972;5.650;2023-09-19T09:52:48;25.3;42.6
78467;SHT31;67759;51.972;5.650;2023-09-19T09:55:21;25.4;42.3
78467;SHT31;67759;51.972;5.650;2023-09-19T09:58:18;25.4;42.7
78467;SHT31;67759;51.972;5.650;2023-09-19T10:00:55;25.3;43.2
78467;SHT31;67759;51.972;5.650;2023-09-19T10:03:38;25.3;43.2
78467;SHT31;67759;51.972;5.650;2023-09-19T10:06:19;25.3;42.6
78467;SHT31;67759;51.972;5.650;2023-09-19T10:09:04;25.3;42.8
78467;SHT31;67759;51.972;5.650;2023-09-19T10:11:46;25.3;43.4
78467;SHT31;67759;51.972;5.650;2023-09-19T10:14:37;25.4;43.7
78467;SHT31;67759;51.972;5.650;2023-09-19T10:17:11;25.4;42.1
78467;SHT31;67759;51.972;5.650;2023-09-19T10:19:50;25.4;42.8
78467;SHT31;67759;51.972;5.650;2023-09-19T10:22:22;25.4;43.1
78467;SHT31;67759;51.972;5.650;2023-09-19T10:25:01;25.5;42.4
78467;SHT31;67759;51.972;5.650;2023-09-19T10:27:35;25.5;42.9
78467;SHT31;67759;51.972;5.650;2023-09-19T10:30:12;25.7;43.2
78467;SHT31;67759;51.972;5.650;2023-09-19T10:32:46;25.8;42.8
78467;SHT31;67759;51.972;5.650;2023-09-19T10:35:21;25.8;41.9
78467;SHT31;67759;51.972;5.650;2023-09-19T10:37:52;25.8;41.7
78467;SHT31;67759;51.972;5.650;2023-09-19T10:40:24;25.9;42.6
78467;SHT31;67759;51.972;5.650;2023-09-19T10:43:02;25.9;41.8
78467;SHT31;67759;51.972;5.650;2023-09-19T10:45:35;25.9;41.7
78467;SHT31;67759;51.972;5.650;2023-09-19T10:48:09;26.0;42.5
78467;SHT31;67759;51.972;5.650;2023-09-19T10:50:53;26.0;42.2
78467;SHT31;67759;51.972;5.650;2023-09-19T10:53:43;26.0;42.0
78467;SHT31;67759;51.972;5.650;2023-09-19T10:56:21;26.1;41.7
78467;SHT31;67759;51.972;5.650;2023-09-19T10:58:53;26.1;41.5
78467;SHT31;67759;51.972;5.650;2023-09-19T11:01:41;26.1;41.2
78467;SHT31;67759;51.972;5.650;2023-09-19T11:04:26;26.1;41.4
78467;SHT31;67759;51.972;5.650;2023-09-19T11:07:05;26.1;41.8
78467;SHT31;67759;51.972;5.650;2023-09-19T11:09:49;26.1;42.2
78467;SHT31;67759;51.972;5.650;2023-09-19T11:12:51;26.1;42.2
78467;SHT31;67759;51.972;5.650;2023-09-19T11:20:27;26.2;40.7
78467;SHT31;67759;51.972;5.650;2023-09-19T11:23:20;26.2;41.4
78467;SHT31;67759;51.972;5.650;2023-09-19T11:25:58;26.2;40.7
78467;SHT31;67759;51.972;5.650;2023-09-19T11:28:34;26.1;40.8
78467;SHT31;67759;51.972;5.650;2023-09-19T11:31:48;26.1;41.3
78467;SHT31;67759;51.972;5.650;2023-09-19T11:34:41;26.1;41.0
78467;SHT31;67759;51.972;5.650;2023-09-19T11:38:03;26.1;40.6
78467;SHT31;67759;51.972;5.650;2023-09-19T11:40:46;26.0;41.2
78467;SHT31;67759;51.972;5.650;2023-09-19T11:43:34;26.0;41.9
78467;SHT31;67759;51.972;5.650;2023-09-19T11:46:08;26.0;40.3
78467;SHT31;67759;51.972;5.650;2023-09-19T11:48:41;26.0;40.2
78467;SHT31;67759;51.972;5.650;2023-09-19T11:51:16;26.0;40.7
78467;SHT31;67759;51.972;5.650;2023-09-19T11:53:51;26.1;41.0
78467;SHT31;67759;51.972;5.650;2023-09-19T11:56:22;26.1;41.3
78467;SHT31;67759;51.972;5.650;2023-09-19T11:58:54;26.2;41.1
78467;SHT31;67759;51.972;5.650;2023-09-19T12:01:30;26.3;41.7
78467;SHT31;67759;51.972;5.650;2023-09-19T12:04:03;26.4;40.6
78467;SHT31;67759;51.972;5.650;2023-09-19T12:06:34;26.5;41.0
78467;SHT31;67759;51.972;5.650;2023-09-19T12:09:08;26.6;40.9
78467;SHT31;67759;51.972;5.650;2023-09-19T12:11:44;26.6;40.6
78467;SHT31;67759;51.972;5.650;2023-09-19T12:14:23;26.6;40.4
78467;SHT31;67759;51.972;5.650;2023-09-19T12:16:58;26.7;39.9
78467;SHT31;67759;51.972;5.650;2023-09-19T12:19:29;26.7;40.2
78467;SHT31;67759;51.972;5.650;2023-09-19T12:22:00;26.8;40.3
78467;SHT31;67759;51.972;5.650;2023-09-19T12:24:33;26.9;39.1
78467;SHT31;67759;51.972;5.650;2023-09-19T12:27:06;26.9;38.8
78467;SHT31;67759;51.972;5.650;2023-09-19T12:29:47;26.9;38.9
78467;SHT31;67759;51.972;5.650;2023-09-19T12:32:35;26.8;38.8
78467;SHT31;67759;51.972;5.650;2023-09-19T12:35:08;26.6;39.2
78467;SHT31;67759;51.972;5.650;2023-09-19T12:37:44;26.5;39.0
78467;SHT31;67759;51.972;5.650;2023-09-19T12:40:16;26.3;39.6
78467;SHT31;67759;51.972;5.650;2023-09-19T12:42:50;26.2;40.0
78467;SHT31;67759;51.972;5.650;2023-09-19T12:45:23;26.1;40.3
78467;SHT31;67759;51.972;5.650;2023-09-19T12:48:20;26.0;40.6
78467;SHT31;67759;51.972;5.650;2023-09-19T12:51:02;25.9;40.5
78467;SHT31;67759;51.972;5.650;2023-09-19T12:53:34;25.8;41.1
78467;SHT31;67759;51.972;5.650;2023-09-19T12:56:10;25.7;41.4
78467;SHT31;67759;51.972;5.650;2023-09-19T12:58:54;25.6;41.8
78467;SHT31;67759;51.972;5.650;2023-09-19T13:01:26;25.5;41.9
78467;SHT31;67759;51.972;5.650;2023-09-19T13:04:13;25.5;42.1
78467;SHT31;67759;51.972;5.650;2023-09-19T13:06:46;25.4;42.6
78467;SHT31;67759;51.972;5.650;2023-09-19T13:09:17;25.4;42.9
78467;SHT31;67759;51.972;5.650;2023-09-19T13:11:49;25.4;43.0
78467;SHT31;67759;51.972;5.650;2023-09-19T13:14:23;25.5;42.4
78467;SHT31;67759;51.972;5.650;2023-09-19T13:16:56;25.6;42.1
78467;SHT31;67759;51.972;5.650;2023-09-19T13:19:43;25.6;42.1
78467;SHT31;67759;51.972;5.650;2023-09-19T13:22:38;25.7;42.0
78467;SHT31;67759;51.972;5.650;2023-09-19T13:25:13;25.6;41.7
78467;SHT31;67759;51.972;5.650;2023-09-19T13:27:47;25.6;42.1
78467;SHT31;67759;51.972;5.650;2023-09-19T13:30:23;25.5;42.2
78467;SHT31;67759;51.972;5.650;2023-09-19T13:33:06;25.4;42.4
78467;SHT31;67759;51.972;5.650;2023-09-19T13:35:38;25.3;42.5
78467;SHT31;67759;51.972;5.650;2023-09-19T13:38:09;25.2;42.8
78467;SHT31;67759;51.972;5.650;2023-09-19T13:40:40;25.2;43.1
78467;SHT31;67759;51.972;5.650;2023-09-19T13:43:10;25.1;43.3
78467;SHT31;67759;51.972;5.650;2023-09-19T13:45:41;25.1;43.1
78467;SHT31;67759;51.972;5.650;2023-09-19T13:48:11;25.0;43.4
78467;SHT31;67759;51.972;5.650;2023-09-19T13:50:41;25.0;44.0
78467;SHT31;67759;51.972;5.650;2023-09-19T13:53:11;25.0;43.9
78467;SHT31;67759;51.972;5.650;2023-09-19T13:55:41;25.0;43.9
78467;SHT31;67759;51.972;5.650;2023-09-19T13:58:10;25.0;44.2
78467;SHT31;67759;51.972;5.650;2023-09-19T14:00:40;25.1;44.2
78467;SHT31;67759;51.972;5.650;2023-09-19T14:03:10;25.2;44.1
78467;SHT31;67759;51.972;5.650;2023-09-19T14:05:41;25.3;43.9
78467;SHT31;67759;51.972;5.650;2023-09-19T14:08:13;25.4;44.1
78467;SHT31;67759;51.972;5.650;2023-09-19T14:10:43;25.5;43.5
78467;SHT31;67759;51.972;5.650;2023-09-19T14:13:16;25.7;43.4
78467;SHT31;67759;51.972;5.650;2023-09-19T14:15:45;25.9;42.4
78467;SHT31;67759;51.972;5.650;2023-09-19T14:18:15;26.1;42.1
78467;SHT31;67759;51.972;5.650;2023-09-19T14:20:46;26.1;42.0
78467;SHT31;67759;51.972;5.650;2023-09-19T14:23:15;26.2;42.3
78467;SHT31;67759;51.972;5.650;2023-09-19T14:25:45;26.2;41.4
78467;SHT31;67759;51.972;5.650;2023-09-19T14:28:15;26.2;42.0
78467;SHT31;67759;51.972;5.650;2023-09-19T14:30:45;26.2;41.7
78467;SHT31;67759;51.972;5.650;2023-09-19T14:33:17;26.1;41.3
78467;SHT31;67759;51.972;5.650;2023-09-19T14:35:46;26.1;41.7
78467;SHT31;67759;51.972;5.650;2023-09-19T14:38:16;26.0;42.0
78467;SHT31;67759;51.972;5.650;2023-09-19T14:40:45;25.9;42.2
78467;SHT31;67759;51.972;5.650;2023-09-19T14:43:17;25.9;42.1
78467;SHT31;67759;51.972;5.650;2023-09-19T14:45:47;25.8;41.7
78467;SHT31;67759;51.972;5.650;2023-09-19T14:48:17;25.7;42.1
78467;SHT31;67759;51.972;5.650;2023-09-19T14:50:46;25.7;42.4
78467;SHT31;67759;51.972;5.650;2023-09-19T14:53:18;25.6;42.5
78467;SHT31;67759;51.972;5.650;2023-09-19T14:55:48;25.5;42.6
78467;SHT31;67759;51.972;5.650;2023-09-19T14:58:21;25.5;42.7
78467;SHT31;67759;51.972;5.650;2023-09-19T15:00:53;25.4;42.9
78467;SHT31;67759;51.972;5.650;2023-09-19T15:03:25;25.4;43.2
78467;SHT31;67759;51.972;5.650;2023-09-19T15:06:01;25.3;43.1
78467;SHT31;67759;51.972;5.650;2023-09-19T15:08:32;25.3;43.6
78467;SHT31;67759;51.972;5.650;2023-09-19T15:11:02;25.2;43.7
78467;SHT31;67759;51.972;5.650;2023-09-19T15:13:34;25.2;44.0
78467;SHT31;67759;51.972;5.650;2023-09-19T15:16:05;25.2;44.0
78467;SHT31;67759;51.972;5.650;2023-09-19T15:18:36;25.2;44.1
78467;SHT31;67759;51.972;5.650;2023-09-19T15:21:09;25.2;44.1
78467;SHT31;67759;51.972;5.650;2023-09-19T15:23:40;25.2;44.0
78467;SHT31;67759;51.972;5.650;2023-09-19T15:26:12;25.2;43.7
78467;SHT31;67759;51.972;5.650;2023-09-19T15:28:44;25.2;43.5
78467;SHT31;67759;51.972;5.650;2023-09-19T15:31:15;25.1;43.4
78467;SHT31;67759;51.972;5.650;2023-09-19T15:33:45;25.1;43.7
78467;SHT31;67759;51.972;5.650;2023-09-19T15:36:15;25.0;44.1
78467;SHT31;67759;51.972;5.650;2023-09-19T15:38:59;24.9;44.2
78467;SHT31;67759;51.972;5.650;2023-09-19T15:41:32;24.9;44.6
78467;SHT31;67759;51.972;5.650;2023-09-19T15:44:03;24.8;44.7
78467;SHT31;67759;51.972;5.650;2023-09-19T15:46:33;24.8;44.6
78467;SHT31;67759;51.972;5.650;2023-09-19T15:49:04;24.8;44.6
78467;SHT31;67759;51.972;5.650;2023-09-19T15:51:35;24.7;44.4
78467;SHT31;67759;51.972;5.650;2023-09-19T15:54:10;24.7;44.7
78467;SHT31;67759;51.972;5.650;2023-09-19T15:56:42;24.6;45.0
78467;SHT31;67759;51.972;5.650;2023-09-19T15:59:12;24.6;44.8
78467;SHT31;67759;51.972;5.650;2023-09-19T16:01:44;24.5;45.3
78467;SHT31;67759;51.972;5.650;2023-09-19T16:04:16;24.4;45.6
78467;SHT31;67759;51.972;5.650;2023-09-19T16:06:46;24.4;45.7
78467;SHT31;67759;51.972;5.650;2023-09-19T16:09:16;24.4;45.8
78467;SHT31;67759;51.972;5.650;2023-09-19T16:11:45;24.5;45.8
78467;SHT31;67759;51.972;5.650;2023-09-19T16:14:19;24.5;46.1
78467;SHT31;67759;51.972;5.650;2023-09-19T16:16:48;24.5;46.0
78467;SHT31;67759;51.972;5.650;2023-09-19T16:19:20;24.5;46.0
78467;SHT31;67759;51.972;5.650;2023-09-19T16:21:51;24.5;46.3
78467;SHT31;67759;51.972;5.650;2023-09-19T16:24:22;24.5;46.0
78467;SHT31;67759;51.972;5.650;2023-09-19T16:26:53;24.4;46.1
78467;SHT31;67759;51.972;5.650;2023-09-19T16:29:24;24.4;46.0
78467;SHT31;67759;51.972;5.650;2023-09-19T16:31:54;24.3;45.9
78467;SHT31;67759;51.972;5.650;2023-09-19T16:34:24;24.3;46.1
78467;SHT31;67759;51.972;5.650;2023-09-19T16:36:54;24.3;46.1
78467;SHT31;67759;51.972;5.650;2023-09-19T16:39:23;24.2;46.3
78467;SHT31;67759;51.972;5.650;2023-09-19T16:41:53;24.2;46.3
78467;SHT31;67759;51.972;5.650;2023-09-19T16:44:22;24.2;46.4
78467;SHT31;67759;51.972;5.650;2023-09-19T16:46:52;24.2;46.2